Time;durP1;ratioP1;P1;durP2;ratioP2;P2;SDS_P1;SDS_P2;PMS_P1;PMS_P2;Temp;Humidity;BMP_temperature;BMP_pressure;BME280_temperature;BME280_humidity;BME280_pressure;Samples;Min_cycle;Max_cycle;Signal;HPM_P1;HPM_P2
2024/03/11 00:00:15;;;;;;;39.45;15.75;;;7.30;100.00;;;;;;5006671;28;20569;-70
2024/03/11 00:02:42;;;;;;;35.67;14.90;;;7.30;100.00;;;;;;5010236;28;20049;-70
2024/03/11 00:05:12;;;;;;;41.45;15.95;;;7.20;100.00;;;;;;5005615;28;20048;-70
2024/03/11 00:07:40;;;;;;;35.90;13.82;;;7.20;100.00;;;;;;5005637;28;20053;-70
2024/03/11 00:10:11;;;;;;;39.40;15.48;;;7.20;100.00;;;;;;5009905;28;20145;-71
2024/03/11 00:12:49;;;;;;;36.60;14.57;;;7.20;100.00;;;;;;5012707;28;20049;-70
2024/03/11 00:15:16;;;;;;;41.42;13.77;;;7.20;100.00;;;;;;5000143;28;20164;-70
2024/03/11 00:17:43;;;;;;;31.08;14.25;;;7.20;100.00;;;;;;5001276;28;20065;-70
2024/03/11 00:20:11;;;;;;;34.90;15.07;;;7.20;100.00;;;;;;4997955;28;20058;-70
2024/03/11 00:22:37;;;;;;;34.30;14.75;;;7.20;100.00;;;;;;5000019;28;20058;-70
2024/03/11 00:25:06;;;;;;;37.17;14.13;;;7.10;100.00;;;;;;5000884;28;20105;-70
2024/03/11 00:27:42;;;;;;;34.95;14.77;;;7.10;100.00;;;;;;4992680;28;20085;-70
2024/03/11 00:30:10;;;;;;;31.45;14.63;;;7.10;100.00;;;;;;5004190;28;20050;-70
2024/03/11 00:32:47;;;;;;;32.85;14.60;;;7.10;100.00;;;;;;5004356;28;20049;-70
2024/03/11 00:35:15;;;;;;;33.70;14.50;;;7.10;100.00;;;;;;5002958;28;20057;-70
2024/03/11 00:37:43;;;;;;;36.08;14.57;;;7.10;100.00;;;;;;5007318;28;20064;-71
2024/03/11 00:40:10;;;;;;;36.35;13.80;;;7.10;100.00;;;;;;5000180;28;20046;-70
2024/03/11 00:42:40;;;;;;;32.05;14.10;;;7.10;100.00;;;;;;5008644;28;20108;-70
2024/03/11 00:45:12;;;;;;;32.13;13.95;;;7.10;100.00;;;;;;5003791;28;20383;-70
2024/03/11 00:47:40;;;;;;;37.85;14.93;;;7.10;100.00;;;;;;5005587;28;20053;-70
2024/03/11 00:50:10;;;;;;;35.42;14.65;;;7.10;100.00;;;;;;5013163;28;20120;-70
2024/03/11 00:52:37;;;;;;;45.47;16.23;;;7.20;100.00;;;;;;5005937;28;20078;-70
2024/03/11 00:55:06;;;;;;;30.85;13.15;;;7.20;100.00;;;;;;5007450;28;20132;-70
2024/03/11 00:57:35;;;;;;;37.80;14.35;;;7.20;100.00;;;;;;5003296;28;20069;-70
2024/03/11 01:00:08;;;;;;;37.42;14.50;;;7.20;100.00;;;;;;5002632;28;20129;-70
2024/03/11 01:02:35;;;;;;;38.33;14.13;;;7.10;100.00;;;;;;5004290;28;20053;-70
2024/03/11 01:05:03;;;;;;;34.75;14.30;;;7.10;100.00;;;;;;5019912;28;20038;-70
2024/03/11 01:07:32;;;;;;;34.80;14.68;;;7.10;100.00;;;;;;5007786;28;20251;-70
2024/03/11 01:10:15;;;;;;;38.80;14.43;;;7.00;100.00;;;;;;5004767;28;20123;-70
2024/03/11 01:12:43;;;;;;;33.95;13.52;;;7.10;100.00;;;;;;5003545;28;20076;-70
2024/03/11 01:15:10;;;;;;;34.28;14.77;;;7.10;100.00;;;;;;5011709;28;20061;-70
2024/03/11 01:17:38;;;;;;;33.80;14.73;;;7.10;100.00;;;;;;5008771;28;20057;-70
2024/03/11 01:20:09;;;;;;;31.80;13.77;;;7.10;100.00;;;;;;5005695;28;20057;-70
2024/03/11 01:22:37;;;;;;;39.03;13.57;;;7.10;100.00;;;;;;5006906;28;20461;-70
2024/03/11 01:25:05;;;;;;;37.70;15.23;;;7.10;100.00;;;;;;5006435;28;20049;-70
2024/03/11 01:27:33;;;;;;;37.10;14.95;;;7.10;100.00;;;;;;5006272;28;20061;-70
2024/03/11 01:30:01;;;;;;;36.10;13.70;;;7.20;100.00;;;;;;5003481;28;20794;-70
2024/03/11 01:32:28;;;;;;;37.47;14.63;;;7.10;100.00;;;;;;5004794;28;20046;-70
2024/03/11 01:34:58;;;;;;;32.35;12.93;;;7.10;100.00;;;;;;5005386;28;20506;-70
2024/03/11 01:37:25;;;;;;;32.05;12.77;;;7.10;100.00;;;;;;5008275;28;20125;-70
2024/03/11 01:39:52;;;;;;;40.17;14.13;;;7.10;100.00;;;;;;5004031;28;20057;-70
2024/03/11 01:42:19;;;;;;;36.83;14.25;;;7.10;100.00;;;;;;5003894;28;20046;-70
2024/03/11 01:44:51;;;;;;;33.28;13.73;;;7.10;100.00;;;;;;5003346;28;20073;-70
2024/03/11 01:47:22;;;;;;;34.20;13.82;;;7.10;100.00;;;;;;5016675;28;20046;-70
2024/03/11 01:49:53;;;;;;;33.97;14.50;;;7.10;100.00;;;;;;5005486;28;20063;-70
2024/03/11 01:52:30;;;;;;;34.03;13.65;;;7.10;100.00;;;;;;5005073;28;20046;-70
2024/03/11 01:54:58;;;;;;;32.90;13.90;;;7.10;100.00;;;;;;5005164;28;20054;-70
2024/03/11 01:57:26;;;;;;;33.40;13.43;;;7.10;100.00;;;;;;5004142;28;20628;-70
2024/03/11 01:59:54;;;;;;;33.03;14.27;;;7.10;100.00;;;;;;5003272;28;20053;-70
2024/03/11 02:02:21;;;;;;;32.97;14.40;;;7.20;100.00;;;;;;5005579;28;20054;-70
2024/03/11 02:04:50;;;;;;;35.50;13.73;;;7.20;100.00;;;;;;5005734;28;20054;-70
2024/03/11 02:07:18;;;;;;;37.58;14.23;;;7.20;100.00;;;;;;5008205;28;20367;-70
2024/03/11 02:09:45;;;;;;;30.67;13.02;;;7.20;100.00;;;;;;5007590;28;20057;-70
2024/03/11 02:12:14;;;;;;;32.55;14.25;;;7.20;100.00;;;;;;5005837;28;20050;-70
2024/03/11 02:14:41;;;;;;;31.33;14.00;;;7.20;100.00;;;;;;5002408;28;20081;-71
2024/03/11 02:17:09;;;;;;;35.95;13.18;;;7.20;100.00;;;;;;5009378;28;20097;-70
2024/03/11 02:19:37;;;;;;;31.95;14.27;;;7.20;100.00;;;;;;5004859;28;20089;-70
2024/03/11 02:22:04;;;;;;;32.90;14.82;;;7.10;100.00;;;;;;5008939;28;20049;-70
2024/03/11 02:24:31;;;;;;;33.85;14.95;;;7.10;100.00;;;;;;5002918;28;20099;-70
2024/03/11 02:26:57;;;;;;;33.20;13.57;;;7.10;100.00;;;;;;5007192;28;20046;-70
2024/03/11 02:29:25;;;;;;;33.47;14.10;;;7.10;100.00;;;;;;5018917;28;20744;-70
2024/03/11 02:31:53;;;;;;;32.60;13.57;;;7.10;100.00;;;;;;5001409;28;20068;-70
2024/03/11 02:34:20;;;;;;;33.92;13.98;;;7.10;100.00;;;;;;5004315;28;20064;-70
2024/03/11 02:36:49;;;;;;;33.67;14.07;;;7.10;100.00;;;;;;5005147;28;20064;-70
2024/03/11 02:39:19;;;;;;;36.58;13.38;;;7.10;100.00;;;;;;5001965;28;20809;-71
2024/03/11 02:41:47;;;;;;;32.28;13.93;;;7.10;100.00;;;;;;5002996;28;20050;-71
2024/03/11 02:44:14;;;;;;;35.03;13.80;;;7.10;100.00;;;;;;5000121;28;20240;-71
2024/03/11 02:46:44;;;;;;;31.15;12.85;;;7.10;100.00;;;;;;5001378;28;20137;-70
2024/03/11 02:49:12;;;;;;;36.33;15.07;;;7.10;100.00;;;;;;5003238;28;20161;-71
2024/03/11 02:51:42;;;;;;;32.08;14.20;;;7.10;100.00;;;;;;5003446;28;20065;-71
2024/03/11 02:54:09;;;;;;;31.48;13.10;;;7.10;100.00;;;;;;5000788;28;20042;-70
2024/03/11 02:56:37;;;;;;;31.77;13.52;;;7.10;100.00;;;;;;5003866;28;20111;-71
2024/03/11 02:59:05;;;;;;;36.55;13.85;;;7.10;100.00;;;;;;5002616;28;20141;-71
2024/03/11 03:01:32;;;;;;;28.50;13.57;;;7.20;100.00;;;;;;5001434;28;20050;-71
2024/03/11 03:03:58;;;;;;;30.95;13.55;;;7.20;100.00;;;;;;5006440;28;20161;-71
2024/03/11 03:06:27;;;;;;;33.20;14.27;;;7.20;100.00;;;;;;5004680;28;20050;-71
2024/03/11 03:08:54;;;;;;;40.28;14.32;;;7.20;100.00;;;;;;5005014;28;20640;-71
2024/03/11 03:11:21;;;;;;;31.95;13.35;;;7.20;100.00;;;;;;5004667;28;20056;-70
2024/03/11 03:13:50;;;;;;;32.13;13.93;;;7.20;100.00;;;;;;5000655;28;20466;-70
2024/03/11 03:16:17;;;;;;;35.40;13.07;;;7.20;100.00;;;;;;5007137;28;20108;-70
2024/03/11 03:18:44;;;;;;;35.65;14.43;;;7.20;100.00;;;;;;5000383;28;20073;-70
2024/03/11 03:21:11;;;;;;;36.63;14.30;;;7.20;100.00;;;;;;5007092;28;20806;-70
2024/03/11 03:23:38;;;;;;;41.25;13.77;;;7.20;100.00;;;;;;5009681;28;20103;-70
2024/03/11 03:26:05;;;;;;;28.25;12.85;;;7.20;100.00;;;;;;5006186;28;20038;-70
2024/03/11 03:28:32;;;;;;;32.03;13.20;;;7.20;100.00;;;;;;5003103;28;20501;-70
2024/03/11 03:30:59;;;;;;;32.80;13.63;;;7.20;100.00;;;;;;5004487;28;20078;-70
2024/03/11 03:33:29;;;;;;;30.45;13.32;;;7.20;100.00;;;;;;5003993;28;20045;-70
2024/03/11 03:35:56;;;;;;;35.22;13.60;;;7.20;100.00;;;;;;5001714;28;20050;-70
2024/03/11 03:38:23;;;;;;;27.48;13.55;;;7.20;100.00;;;;;;5003519;28;20688;-70
2024/03/11 03:40:50;;;;;;;28.95;13.15;;;7.20;100.00;;;;;;5003348;28;20058;-70
2024/03/11 03:43:17;;;;;;;32.88;13.35;;;7.20;100.00;;;;;;5003303;28;20390;-70
2024/03/11 03:45:44;;;;;;;31.67;13.70;;;7.20;100.00;;;;;;5002611;28;20096;-71
2024/03/11 03:48:11;;;;;;;32.17;14.13;;;7.20;100.00;;;;;;5007047;28;20487;-70
2024/03/11 03:50:39;;;;;;;34.70;13.75;;;7.20;100.00;;;;;;5002890;28;20096;-70
2024/03/11 03:53:05;;;;;;;28.77;12.55;;;7.20;100.00;;;;;;5005359;28;20710;-70
2024/03/11 03:55:37;;;;;;;30.02;13.57;;;7.20;100.00;;;;;;5000853;28;20086;-70
2024/03/11 03:58:04;;;;;;;30.25;13.75;;;7.20;100.00;;;;;;5002915;28;20053;-70
2024/03/11 04:00:34;;;;;;;34.33;13.20;;;7.10;100.00;;;;;;5006071;28;20095;-70
2024/03/11 04:03:05;;;;;;;30.92;13.30;;;7.10;100.00;;;;;;5005541;28;20060;-70
2024/03/11 04:05:31;;;;;;;33.55;13.88;;;7.10;100.00;;;;;;5010138;28;20058;-70
2024/03/11 04:07:59;;;;;;;32.10;12.68;;;7.10;100.00;;;;;;5005539;28;20852;-70
2024/03/11 04:10:49;;;;;;;38.10;13.32;;;7.10;100.00;;;;;;5010175;28;20112;-70
2024/03/11 04:13:17;;;;;;;33.10;12.95;;;7.10;100.00;;;;;;5007510;28;20133;-70
2024/03/11 04:15:44;;;;;;;34.25;13.70;;;7.10;100.00;;;;;;5008819;28;20467;-70
2024/03/11 04:18:10;;;;;;;32.40;13.45;;;7.10;100.00;;;;;;5006476;28;20699;-70
2024/03/11 04:20:39;;;;;;;30.55;13.35;;;7.20;100.00;;;;;;5006517;28;20483;-70
2024/03/11 04:23:07;;;;;;;34.42;14.25;;;7.10;100.00;;;;;;5008570;28;20056;-70
2024/03/11 04:25:38;;;;;;;30.60;13.60;;;7.10;100.00;;;;;;5007620;28;20058;-71
2024/03/11 04:28:06;;;;;;;32.30;13.35;;;7.20;100.00;;;;;;5005848;28;20069;-70
2024/03/11 04:30:39;;;;;;;30.63;12.98;;;7.10;100.00;;;;;;5001547;28;20046;-70
2024/03/11 04:33:06;;;;;;;31.33;14.32;;;7.10;100.00;;;;;;5007320;28;20426;-70
2024/03/11 04:35:35;;;;;;;28.65;12.65;;;7.10;100.00;;;;;;5006078;28;20587;-70
2024/03/11 04:38:08;;;;;;;31.45;13.00;;;7.10;100.00;;;;;;5008521;28;20447;-70
2024/03/11 04:40:40;;;;;;;34.70;12.57;;;7.10;100.00;;;;;;5005807;28;20119;-70
2024/03/11 04:43:07;;;;;;;26.05;12.43;;;7.10;100.00;;;;;;5008668;28;20557;-70
2024/03/11 04:45:37;;;;;;;28.02;12.98;;;7.10;100.00;;;;;;5005295;28;20049;-70
2024/03/11 04:48:06;;;;;;;36.05;13.05;;;7.10;100.00;;;;;;5003183;28;20045;-70
2024/03/11 04:50:34;;;;;;;36.80;14.18;;;7.00;100.00;;;;;;5001460;28;20128;-70
2024/03/11 04:53:07;;;;;;;29.42;12.77;;;7.00;100.00;;;;;;5006824;28;20129;-70
2024/03/11 04:55:36;;;;;;;32.67;12.90;;;7.00;100.00;;;;;;5008732;28;20115;-71
2024/03/11 04:58:04;;;;;;;28.45;13.20;;;7.00;100.00;;;;;;5008068;28;20156;-70
2024/03/11 05:00:31;;;;;;;30.70;13.23;;;7.00;100.00;;;;;;5004092;28;20061;-70
2024/03/11 05:03:00;;;;;;;32.28;12.63;;;7.00;100.00;;;;;;5004283;28;20057;-70
2024/03/11 05:05:31;;;;;;;31.38;12.70;;;7.00;100.00;;;;;;5005768;28;20742;-70
2024/03/11 05:07:59;;;;;;;30.13;12.15;;;6.90;100.00;;;;;;5005004;28;20045;-70
2024/03/11 05:10:26;;;;;;;30.00;12.77;;;6.90;100.00;;;;;;5006506;28;20115;-70
2024/03/11 05:12:53;;;;;;;31.35;12.00;;;6.90;100.00;;;;;;5006769;28;20069;-70
2024/03/11 05:15:21;;;;;;;34.50;13.10;;;6.90;100.00;;;;;;5006563;28;20057;-70
2024/03/11 05:17:49;;;;;;;34.35;12.43;;;6.90;100.00;;;;;;5006551;28;20168;-70
2024/03/11 05:20:18;;;;;;;30.58;13.60;;;6.90;100.00;;;;;;5005264;28;20084;-70
2024/03/11 05:22:47;;;;;;;30.98;13.15;;;6.90;100.00;;;;;;5008139;28;20049;-70
2024/03/11 05:25:14;;;;;;;34.35;13.18;;;6.90;100.00;;;;;;5004126;28;20116;-70
2024/03/11 05:27:47;;;;;;;28.45;12.73;;;6.90;100.00;;;;;;5004030;28;20415;-70
2024/03/11 05:30:16;;;;;;;35.45;13.82;;;6.90;100.00;;;;;;5003596;28;20049;-70
2024/03/11 05:32:43;;;;;;;31.20;13.80;;;7.00;100.00;;;;;;5007894;28;20065;-70
2024/03/11 05:35:11;;;;;;;32.08;12.85;;;7.00;100.00;;;;;;4998225;28;20053;-70
2024/03/11 05:37:38;;;;;;;32.20;13.30;;;7.00;100.00;;;;;;5004915;28;20096;-70
2024/03/11 05:40:05;;;;;;;37.28;13.05;;;7.00;100.00;;;;;;5010311;28;20077;-70
2024/03/11 05:42:34;;;;;;;32.90;12.23;;;7.00;100.00;;;;;;5011046;28;20509;-70
2024/03/11 05:45:02;;;;;;;31.88;14.00;;;7.10;100.00;;;;;;5004830;28;20068;-70
2024/03/11 05:47:29;;;;;;;41.72;13.02;;;7.10;100.00;;;;;;5008680;28;20505;-71
2024/03/11 05:49:56;;;;;;;33.22;13.70;;;7.10;100.00;;;;;;5010514;28;20038;-71
2024/03/11 05:52:26;;;;;;;31.00;12.45;;;7.10;100.00;;;;;;5010314;28;20495;-72
2024/03/11 05:54:53;;;;;;;29.58;13.38;;;7.20;100.00;;;;;;5011028;28;20045;-71
2024/03/11 05:57:29;;;;;;;30.63;12.82;;;7.20;100.00;;;;;;5008898;28;20406;-80
2024/03/11 05:59:57;;;;;;;31.52;12.98;;;7.20;100.00;;;;;;5014556;28;20048;-72
2024/03/11 06:02:24;;;;;;;31.25;12.98;;;7.20;100.00;;;;;;5008385;28;20534;-69
2024/03/11 06:04:51;;;;;;;31.85;12.90;;;7.20;100.00;;;;;;5010188;28;20809;-68
2024/03/11 06:07:22;;;;;;;36.53;13.57;;;7.20;100.00;;;;;;5008410;28;20053;-69
2024/03/11 06:09:52;;;;;;;32.55;13.48;;;7.30;100.00;;;;;;5008641;28;20077;-71
2024/03/11 06:12:20;;;;;;;34.10;14.05;;;7.30;100.00;;;;;;4997346;28;20041;-69
2024/03/11 06:14:48;;;;;;;33.78;13.00;;;7.30;100.00;;;;;;5014854;28;20555;-70
2024/03/11 06:17:15;;;;;;;37.13;13.48;;;7.30;100.00;;;;;;5013123;28;20057;-71
2024/03/11 06:19:44;;;;;;;33.10;13.70;;;7.40;100.00;;;;;;5013441;28;20100;-67
2024/03/11 06:22:15;;;;;;;35.65;13.40;;;7.30;100.00;;;;;;4998407;28;20046;-70
2024/03/11 06:24:42;;;;;;;35.20;14.52;;;7.40;100.00;;;;;;5003986;28;20108;-69
2024/03/11 06:27:09;;;;;;;34.30;13.07;;;7.40;100.00;;;;;;4997991;28;20046;-71
2024/03/11 06:29:35;;;;;;;41.83;13.52;;;7.40;100.00;;;;;;5005693;28;20081;-71
2024/03/11 06:32:05;;;;;;;30.48;12.68;;;7.50;100.00;;;;;;5003484;28;20069;-71
2024/03/11 06:34:34;;;;;;;30.92;13.63;;;7.50;100.00;;;;;;5002330;28;20049;-70
2024/03/11 06:37:01;;;;;;;29.17;12.70;;;7.50;100.00;;;;;;5004826;28;20121;-68
2024/03/11 06:39:29;;;;;;;34.08;13.48;;;7.50;100.00;;;;;;5004233;28;20126;-69
2024/03/11 06:41:57;;;;;;;41.25;14.75;;;7.50;100.00;;;;;;5005269;28;20808;-68
2024/03/11 06:44:27;;;;;;;33.50;14.23;;;7.50;100.00;;;;;;5004728;28;20053;-69
2024/03/11 06:47:08;;;;;;;43.38;14.90;;;7.50;100.00;;;;;;5006363;28;20048;-70
2024/03/11 06:49:36;;;;;;;33.22;13.82;;;7.50;100.00;;;;;;5001000;28;20706;-70
2024/03/11 06:52:05;;;;;;;30.77;13.73;;;7.50;100.00;;;;;;5003800;28;20077;-70
2024/03/11 06:54:33;;;;;;;28.88;13.48;;;7.50;100.00;;;;;;5003219;28;20081;-70
2024/03/11 06:57:00;;;;;;;34.65;15.02;;;7.60;100.00;;;;;;5003302;28;20662;-69
2024/03/11 06:59:28;;;;;;;30.50;14.60;;;7.60;100.00;;;;;;5001298;28;20049;-70
2024/03/11 07:01:56;;;;;;;32.70;14.63;;;7.60;100.00;;;;;;5004326;28;20525;-70
2024/03/11 07:04:23;;;;;;;34.90;14.38;;;7.60;100.00;;;;;;5003093;28;20046;-70
2024/03/11 07:06:51;;;;;;;38.60;15.00;;;7.60;100.00;;;;;;5001453;28;20136;-70
2024/03/11 07:09:18;;;;;;;31.90;13.30;;;7.70;100.00;;;;;;5004234;28;20765;-70
2024/03/11 07:11:46;;;;;;;30.48;14.30;;;7.70;100.00;;;;;;5003419;28;20050;-70
2024/03/11 07:14:13;;;;;;;29.48;13.73;;;7.70;100.00;;;;;;5004261;28;20041;-70
2024/03/11 07:16:44;;;;;;;35.67;14.93;;;7.70;100.00;;;;;;5006926;28;20053;-70
2024/03/11 07:19:12;;;;;;;33.38;14.60;;;7.70;100.00;;;;;;5004618;28;20088;-70
2024/03/11 07:21:39;;;;;;;31.13;15.15;;;7.70;100.00;;;;;;5003657;28;20780;-70
2024/03/11 07:24:06;;;;;;;33.50;15.35;;;7.70;100.00;;;;;;5002611;28;20137;-70
2024/03/11 07:26:34;;;;;;;34.45;14.75;;;7.70;100.00;;;;;;4999196;28;20085;-71
2024/03/11 07:29:01;;;;;;;31.77;14.25;;;7.70;100.00;;;;;;5004611;28;20148;-70
2024/03/11 07:31:29;;;;;;;32.63;14.88;;;7.70;100.00;;;;;;5001311;28;20815;-70
2024/03/11 07:33:56;;;;;;;34.00;15.13;;;7.70;100.00;;;;;;5014550;28;20138;-70
2024/03/11 07:36:24;;;;;;;38.05;15.18;;;7.70;100.00;;;;;;5007562;28;20046;-70
2024/03/11 07:38:52;;;;;;;34.33;15.73;;;7.70;100.00;;;;;;5007489;28;20137;-70
2024/03/11 07:41:19;;;;;;;39.70;15.20;;;7.70;100.00;;;;;;5005444;28;20171;-70
2024/03/11 07:43:45;;;;;;;31.63;14.57;;;7.70;100.00;;;;;;5002436;28;20111;-70
2024/03/11 07:46:13;;;;;;;31.38;15.52;;;7.70;100.00;;;;;;5005610;28;20061;-70
2024/03/11 07:48:40;;;;;;;34.42;14.98;;;7.70;100.00;;;;;;5007402;28;20056;-70
2024/03/11 07:51:08;;;;;;;36.00;15.07;;;7.70;100.00;;;;;;5006538;28;20046;-70
2024/03/11 07:53:36;;;;;;;36.10;16.13;;;7.70;100.00;;;;;;5007519;28;20540;-70
2024/03/11 07:56:04;;;;;;;34.90;14.60;;;7.70;100.00;;;;;;5007895;28;20077;-70
2024/03/11 07:58:36;;;;;;;31.15;15.05;;;7.70;100.00;;;;;;5006450;28;20160;-70
2024/03/11 08:01:03;;;;;;;36.50;16.25;;;7.70;100.00;;;;;;5005923;28;20050;-70
2024/03/11 08:03:30;;;;;;;31.77;14.30;;;7.60;100.00;;;;;;5005974;28;20072;-70
2024/03/11 08:05:58;;;;;;;39.60;15.05;;;7.60;100.00;;;;;;5006422;28;20053;-70
2024/03/11 08:08:26;;;;;;;35.25;15.80;;;7.60;100.00;;;;;;5006584;28;20042;-70
2024/03/11 08:10:53;;;;;;;32.67;14.60;;;7.60;100.00;;;;;;5007017;28;20052;-70
2024/03/11 08:13:20;;;;;;;33.35;14.82;;;7.50;100.00;;;;;;5006201;28;20042;-70
2024/03/11 08:15:48;;;;;;;34.25;15.38;;;7.50;100.00;;;;;;5012433;28;20565;-69
2024/03/11 08:18:16;;;;;;;34.13;15.07;;;7.50;100.00;;;;;;4999738;28;20220;-70
2024/03/11 08:20:43;;;;;;;37.45;15.48;;;7.50;100.00;;;;;;5005602;28;20136;-70
2024/03/11 08:23:10;;;;;;;33.97;15.25;;;7.50;100.00;;;;;;4997666;28;20057;-70
2024/03/11 08:25:37;;;;;;;32.72;15.27;;;7.50;100.00;;;;;;5006888;28;20060;-70
2024/03/11 08:28:05;;;;;;;29.83;14.68;;;7.50;100.00;;;;;;5004933;28;20499;-70
2024/03/11 08:30:31;;;;;;;34.35;15.10;;;7.60;100.00;;;;;;5004243;28;20145;-70
2024/03/11 08:32:59;;;;;;;34.83;15.05;;;7.60;100.00;;;;;;5006984;28;20053;-70
2024/03/11 08:35:27;;;;;;;34.88;15.95;;;7.70;100.00;;;;;;5004983;28;20057;-70
2024/03/11 08:37:53;;;;;;;39.55;16.23;;;7.70;100.00;;;;;;5007066;28;20398;-70
2024/03/11 08:40:22;;;;;;;37.75;15.65;;;7.70;100.00;;;;;;5005750;28;20081;-70
2024/03/11 08:42:52;;;;;;;34.92;15.10;;;7.70;100.00;;;;;;5006608;28;20077;-70
2024/03/11 08:45:22;;;;;;;38.53;16.98;;;7.70;100.00;;;;;;5005112;28;20046;-70
2024/03/11 08:47:51;;;;;;;36.28;16.17;;;7.70;100.00;;;;;;5006203;28;20116;-70
2024/03/11 08:50:21;;;;;;;36.15;16.35;;;7.70;100.00;;;;;;4999752;28;20137;-70
2024/03/11 08:52:49;;;;;;;36.33;16.15;;;7.70;100.00;;;;;;4999064;28;20121;-70
2024/03/11 08:55:17;;;;;;;38.13;16.25;;;7.70;100.00;;;;;;5003487;28;20209;-70
2024/03/11 08:57:45;;;;;;;33.90;15.75;;;7.80;100.00;;;;;;5002861;28;20054;-70
2024/03/11 09:00:15;;;;;;;32.10;16.10;;;7.70;100.00;;;;;;5006693;28;20624;-70
2024/03/11 09:02:44;;;;;;;37.58;15.98;;;7.80;100.00;;;;;;4999203;28;20054;-70
2024/03/11 09:05:12;;;;;;;39.15;16.80;;;7.80;100.00;;;;;;4999926;28;20056;-70
2024/03/11 09:07:40;;;;;;;36.75;17.42;;;7.80;100.00;;;;;;5002757;28;20046;-70
2024/03/11 09:10:09;;;;;;;34.88;15.75;;;7.80;100.00;;;;;;5002478;28;20052;-70
2024/03/11 09:12:40;;;;;;;37.35;16.50;;;7.80;100.00;;;;;;5006533;28;20060;-70
2024/03/11 09:15:18;;;;;;;34.95;15.75;;;7.80;100.00;;;;;;5004901;28;20056;-70
2024/03/11 09:17:49;;;;;;;34.72;16.85;;;7.80;100.00;;;;;;5004872;28;20111;-70
2024/03/11 09:20:19;;;;;;;37.30;16.50;;;7.90;100.00;;;;;;5000060;28;20081;-70
2024/03/11 09:22:47;;;;;;;37.70;16.55;;;7.90;100.00;;;;;;4997865;28;20101;-70
2024/03/11 09:25:24;;;;;;;40.63;16.92;;;7.90;100.00;;;;;;4989723;28;20053;-70
2024/03/11 09:27:54;;;;;;;37.85;17.73;;;7.90;100.00;;;;;;5001210;28;20088;-70
2024/03/11 09:30:21;;;;;;;37.92;17.45;;;7.90;100.00;;;;;;5005158;28;20053;-70
2024/03/11 09:32:51;;;;;;;39.50;17.45;;;8.00;100.00;;;;;;5003062;28;20045;-70
2024/03/11 09:35:19;;;;;;;40.72;18.60;;;8.00;100.00;;;;;;4995883;28;20054;-70
2024/03/11 09:37:46;;;;;;;39.35;18.35;;;8.00;100.00;;;;;;5004583;28;20054;-70
2024/03/11 09:40:16;;;;;;;42.58;19.40;;;8.00;100.00;;;;;;5016598;28;20049;-70
2024/03/11 09:42:46;;;;;;;40.25;18.40;;;8.00;100.00;;;;;;5005241;28;20419;-70
2024/03/11 09:45:20;;;;;;;43.75;18.05;;;8.00;100.00;;;;;;4998268;28;20041;-70
2024/03/11 09:47:52;;;;;;;44.70;18.23;;;8.00;100.00;;;;;;5004805;28;20057;-70
2024/03/11 09:50:26;;;;;;;38.13;18.02;;;8.00;100.00;;;;;;5005722;28;20052;-70
2024/03/11 09:53:07;;;;;;;47.50;19.10;;;8.00;100.00;;;;;;5005325;28;20069;-70
2024/03/11 09:55:36;;;;;;;48.33;19.77;;;8.00;100.00;;;;;;5011354;28;20052;-70
2024/03/11 09:58:06;;;;;;;48.60;19.08;;;8.00;100.00;;;;;;5004409;28;20483;-70
2024/03/11 10:00:35;;;;;;;45.05;19.55;;;8.00;100.00;;;;;;5003939;28;20053;-70
2024/03/11 10:03:10;;;;;;;51.45;19.35;;;8.00;100.00;;;;;;5004350;28;20061;-70
2024/03/11 10:05:39;;;;;;;48.85;19.70;;;8.00;100.00;;;;;;5005717;28;20069;-70
2024/03/11 10:08:06;;;;;;;44.78;19.83;;;8.10;100.00;;;;;;5003029;28;20084;-70
2024/03/11 10:10:34;;;;;;;53.88;21.70;;;8.10;100.00;;;;;;5003584;28;20128;-70
2024/03/11 10:13:04;;;;;;;47.30;20.77;;;8.10;100.00;;;;;;5004641;28;20053;-70
2024/03/11 10:15:33;;;;;;;45.13;20.58;;;8.20;100.00;;;;;;5004290;28;20061;-70
2024/03/11 10:18:14;;;;;;;49.25;20.83;;;8.20;100.00;;;;;;5003969;28;20072;-70
2024/03/11 10:20:43;;;;;;;50.45;21.15;;;8.20;100.00;;;;;;5004866;28;20050;-70
2024/03/11 10:23:17;;;;;;;47.35;20.40;;;8.20;100.00;;;;;;5004272;28;20671;-70
2024/03/11 10:25:46;;;;;;;45.70;20.88;;;8.40;100.00;;;;;;5003912;28;20554;-70
2024/03/11 10:28:31;;;;;;;53.03;22.55;;;8.40;100.00;;;;;;5000945;28;20046;-70
2024/03/11 10:30:58;;;;;;;42.17;19.83;;;8.50;100.00;;;;;;5003992;28;20045;-70
2024/03/11 10:33:32;;;;;;;50.47;22.15;;;8.50;100.00;;;;;;5002829;28;20041;-70
2024/03/11 10:36:09;;;;;;;46.90;21.73;;;8.50;100.00;;;;;;5004164;28;20120;-70
2024/03/11 10:38:38;;;;;;;48.10;21.35;;;8.60;100.00;;;;;;5004570;28;20060;-70
2024/03/11 10:41:20;;;;;;;53.42;23.42;;;8.70;100.00;;;;;;5003168;28;20054;-70
2024/03/11 10:43:51;;;;;;;50.53;22.08;;;8.80;100.00;;;;;;5004109;28;20054;-70
2024/03/11 10:46:20;;;;;;;47.92;21.15;;;8.80;100.00;;;;;;5000303;28;20046;-70
2024/03/11 10:48:47;;;;;;;51.15;23.05;;;8.80;100.00;;;;;;5006534;28;20050;-71
2024/03/11 10:51:22;;;;;;;49.63;22.00;;;8.80;100.00;;;;;;5004232;28;20502;-70
2024/03/11 10:53:51;;;;;;;51.67;23.35;;;8.90;100.00;;;;;;5003854;28;20104;-70
2024/03/11 10:56:19;;;;;;;52.42;23.15;;;8.90;100.00;;;;;;5002636;28;20054;-71
2024/03/11 10:58:53;;;;;;;50.25;22.08;;;8.90;100.00;;;;;;5000326;28;20049;-70
2024/03/11 11:01:39;;;;;;;52.55;22.00;;;8.80;100.00;;;;;;5004617;28;20104;-71
2024/03/11 11:04:15;;;;;;;;;;;8.90;100.00;;;;;;5004454;28;20142;-70
2024/03/11 11:06:46;;;;;;;;;;;8.80;100.00;;;;;;5004229;28;19972;-70
2024/03/11 11:09:14;;;;;;;48.35;21.77;;;8.80;100.00;;;;;;5007423;28;20016;-69
2024/03/11 11:11:51;;;;;;;52.97;21.70;;;8.80;100.00;;;;;;5005864;28;20725;-70
2024/03/11 11:14:19;;;;;;;48.40;20.80;;;8.80;100.00;;;;;;5001568;28;20050;-70
2024/03/11 11:16:48;;;;;;;53.72;21.45;;;8.70;100.00;;;;;;5007057;28;20056;-70
2024/03/11 11:19:19;;;;;;;51.58;21.80;;;8.70;100.00;;;;;;5001279;28;20104;-70
2024/03/11 11:21:46;;;;;;;63.03;23.02;;;8.80;100.00;;;;;;5005762;28;20050;-70
2024/03/11 11:24:39;;;;;;;52.60;22.60;;;8.80;100.00;;;;;;5005523;28;20046;-70
2024/03/11 11:27:13;;;;;;;61.25;23.70;;;8.80;100.00;;;;;;5008275;28;20218;-70
2024/03/11 11:29:46;;;;;;;52.05;22.33;;;8.80;100.00;;;;;;5004106;28;20131;-70
2024/03/11 11:32:18;;;;;;;47.20;20.88;;;8.80;100.00;;;;;;5004813;28;20437;-70
2024/03/11 11:34:45;;;;;;;49.53;22.10;;;8.80;100.00;;;;;;5007834;28;20049;-70
2024/03/11 11:37:23;;;;;;;53.80;23.10;;;8.70;100.00;;;;;;5006490;28;20157;-70
2024/03/11 11:39:50;;;;;;;48.00;21.02;;;8.70;100.00;;;;;;5007062;28;20085;-70
2024/03/11 11:42:37;;;;;;;55.55;23.08;;;8.70;100.00;;;;;;5007900;28;20131;-70
2024/03/11 11:45:11;;;;;;;53.85;22.00;;;8.70;100.00;;;;;;5006338;28;20069;-70
2024/03/11 11:47:39;;;;;;;54.08;22.52;;;8.60;100.00;;;;;;5004150;28;20057;-70
2024/03/11 11:50:30;;;;;;;59.33;23.88;;;8.60;100.00;;;;;;5007477;28;20076;-71
2024/03/11 11:53:02;;;;;;;48.22;21.17;;;8.60;100.00;;;;;;5006144;28;20054;-70
2024/03/11 11:55:30;;;;;;;51.05;22.00;;;8.60;100.00;;;;;;5005948;28;20057;-70
2024/03/11 11:58:10;;;;;;;57.65;23.17;;;8.50;100.00;;;;;;5006480;28;20085;-70
2024/03/11 12:00:41;;;;;;;56.00;23.45;;;8.50;100.00;;;;;;5002152;28;20053;-70
2024/03/11 12:03:34;;;;;;;57.50;23.05;;;8.50;100.00;;;;;;5004310;28;20045;-70
2024/03/11 12:06:04;;;;;;;57.28;23.42;;;8.40;100.00;;;;;;5009203;28;20054;-70
2024/03/11 12:08:32;;;;;;;58.25;22.50;;;8.40;100.00;;;;;;5005588;28;20090;-70
2024/03/11 12:11:10;;;;;;;56.47;23.85;;;8.40;100.00;;;;;;5006605;28;20538;-70
2024/03/11 12:13:40;;;;;;;51.33;22.77;;;8.40;100.00;;;;;;5005468;28;20085;-70
2024/03/11 12:16:10;;;;;;;55.13;22.25;;;8.40;100.00;;;;;;5004971;28;20053;-70
2024/03/11 12:18:39;;;;;;;59.78;23.17;;;8.40;100.00;;;;;;5006979;28;20065;-70
2024/03/11 12:21:13;;;;;;;58.72;24.35;;;8.40;100.00;;;;;;5006567;28;20049;-70
2024/03/11 12:23:43;;;;;;;57.70;24.15;;;8.30;100.00;;;;;;5005422;28;20057;-70
2024/03/11 12:26:13;;;;;;;49.50;22.83;;;8.30;100.00;;;;;;5006322;28;20057;-70
2024/03/11 12:29:03;;;;;;;58.95;24.75;;;8.30;100.00;;;;;;5005490;28;20372;-70
2024/03/11 12:31:34;;;;;;;57.13;24.42;;;8.30;100.00;;;;;;5007557;28;20045;-70
2024/03/11 12:34:06;;;;;;;52.72;23.52;;;8.30;100.00;;;;;;5007437;28;20053;-70
2024/03/11 12:36:39;;;;;;;56.20;23.20;;;8.40;100.00;;;;;;5005620;28;20057;-70
2024/03/11 12:39:34;;;;;;;62.00;24.13;;;8.40;100.00;;;;;;5004478;28;20042;-70